Data for 02/01/2013

Time Sea-Level Adjusted Pressure Absolute Pressure Temperature Relative Humidity Dew Point   
(mb) (inHg) (mb) (inHg) (C) (F) (%) (C) (F)
00:05 1019 30.09 848 25.04 3.3 38 57 -4.4 24.1
00:10 1019 30.09 848 25.04 3.5 38.2 59 -3.9 25
00:15 1019 30.09 848 25.04 3.1 37.6 62 -3.6 25.6
00:20 1019 30.09 848 25.04 2.8 37 62 -3.9 25.1
00:25 1019 30.09 848 25.04 2.8 37 58 -4.6 23.8
00:30 1018 30.06 848 25.04 3 37.4 58 -4.5 23.9
00:35 1019 30.09 848 25.04 3.1 37.6 59 -4.1 24.6
00:40 1018 30.06 848 25.04 3 37.4 59 -4.3 24.2
00:45 1018 30.06 848 25.04 3.1 37.6 58 -4.5 24
00:50 1018 30.06 848 25.04 3.2 37.8 57 -4.5 24
00:55 1018 30.06 848 25.04 3.1 37.6 59 -4.1 24.6
01:00 1018 30.06 848 25.04 3 37.3 60 -4 24.9
01:05 1018 30.06 848 25.04 2.8 37.1 60 -4.1 24.5
01:10 1018 30.06 848 25.04 3 37.4 58 -4.4 24.1
01:15 1018 30.06 848 25.04 3.1 37.6 58 -4.3 24.3
01:20 1018 30.06 848 25.04 3.1 37.6 57 -4.5 23.9
01:25 1018 30.06 847 25.01 3.2 37.7 58 -4.3 24.2
01:30 1018 30.06 847 25.01 3.2 37.7 58 -4.3 24.2
01:35 1018 30.06 847 25.01 3.1 37.6 59 -4 24.7
01:40 1018 30.06 847 25.01 3 37.5 59 -4.2 24.5
01:45 1018 30.06 847 25.01 3 37.4 59 -4.2 24.5
01:50 1018 30.06 847 25.01 3 37.4 59 -4.2 24.5
01:55 1018 30.06 847 25.01 3.1 37.5 59 -4.1 24.5
02:00 1018 30.06 847 25.01 3.1 37.6 59 -4.2 24.5
02:05 1018 30.06 847 25.01 3.1 37.6 60 -3.9 24.9
02:10 1018 30.06 847 25.01 3.1 37.5 60 -4 24.8
02:15 1018 30.06 847 25.01 3.2 37.7 58 -4.4 24.2
02:20 1018 30.06 847 25.01 3.3 37.9 58 -4.2 24.4
02:25 1018 30.06 847 25.01 3.3 38 59 -4 24.8
02:30 1018 30.06 847 25.01 3.3 37.9 58 -4.1 24.5
02:35 1018 30.06 847 25.01 3.2 37.8 59 -4 24.7
02:40 1018 30.06 847 25.01 3.2 37.7 59 -4 24.8
02:45 1018 30.06 847 25.01 3.1 37.5 60 -4 24.9
02:50 1018 30.06 847 25.01 3.1 37.5 60 -4 24.8
02:55 1018 30.06 847 25.01 3.1 37.6 59 -4.1 24.7
03:00 1018 30.06 847 25.01 3.2 37.8 57 -4.6 23.7
03:05 1018 30.06 847 25.01 3.6 38.6 53 -5 23
03:10 1018 30.06 847 25.01 3.8 38.8 55 -4.5 23.8
03:15 1018 30.06 847 25.01 3.6 38.5 56 -4.4 24.1
03:20 1018 30.06 847 25.01 3.4 38.2 59 -3.9 24.9
03:25 1018 30.06 847 25.01 3.3 37.9 56 -4.7 23.5
03:30 1018 30.06 847 25.01 3.4 38.2 58 -4.1 24.7
03:35 1018 30.06 847 25.01 3.2 37.8 60 -3.8 25.1
03:40 1018 30.06 847 25.01 3 37.5 61 -3.8 25.2
03:45 1018 30.06 847 25.01 2.9 37.2 61 -4 24.8
03:50 1018 30.06 847 25.01 2.9 37.2 59 -4.2 24.4
03:55 1018 30.06 847 25.01 3 37.3 59 -4.3 24.3
04:00 1018 30.06 847 25.01 3 37.4 60 -4 24.7
04:05 1018 30.06 847 25.01 3 37.3 60 -4 24.8
04:10 1018 30.06 847 25.01 3 37.3 61 -3.9 25
04:15 1018 30.06 847 25.01 2.9 37.2 61 -4 24.8
04:20 1018 30.06 847 25.01 2.8 37 61 -4.1 24.7
04:25 1018 30.06 847 25.01 2.7 36.9 60 -4.2 24.5
04:30 1018 30.06 847 25.01 2.8 37 60 -4.2 24.5
04:35 1018 30.06 847 25.01 2.8 37.1 60 -4.2 24.5
04:40 1018 30.06 847 25.01 2.8 37 59 -4.3 24.2
04:45 1018 30.06 847 25.01 2.8 37.1 59 -4.4 24.2
04:50 1018 30.06 847 25.01 2.9 37.2 59 -4.3 24.2
04:55 1018 30.06 847 25.01 2.9 37.2 60 -4.2 24.5
05:00 1018 30.06 847 25.01 2.8 37 60 -4.1 24.5
05:05 1018 30.06 847 25.01 2.7 36.9 61 -4.1 24.6
05:10 1018 30.06 847 25.01 2.8 37 60 -4.2 24.5
05:15 1018 30.06 847 25.01 2.8 37 61 -4 24.9
05:20 1018 30.06 847 25.01 2.6 36.8 61 -4.2 24.5
05:25 1018 30.06 847 25.01 2.7 36.8 61 -4 24.7
05:30 1018 30.06 847 25.01 2.7 36.9 62 -3.9 25.1
05:35 1018 30.06 847 25.01 2.7 36.9 63 -3.6 25.5
05:40 1017 30.03 847 25.01 2.6 36.7 64 -3.5 25.7
05:45 1017 30.03 847 25.01 2.5 36.5 64 -3.7 25.4
05:50 1017 30.03 847 25.01 2.6 36.7 64 -3.6 25.5
05:55 1017 30.03 847 25.01 2.6 36.7 64 -3.5 25.7
06:00 1017 30.03 847 25.01 2.5 36.6 64 -3.6 25.6
06:05 1017 30.03 847 25.01 2.5 36.5 65 -3.4 25.9
06:10 1017 30.03 847 25.01 2.3 36.1 66 -3.4 25.9
06:15 1018 30.06 847 25.01 2 35.7 67 -3.5 25.7
06:20 1018 30.06 847 25.01 2 35.7 66 -3.6 25.5
06:25 1018 30.06 847 25.01 2.2 35.9 66 -3.5 25.7
06:30 1018 30.06 847 25.01 2.1 35.8 68 -3.2 26.2
06:35 1017 30.03 847 25.01 1.9 35.5 69 -3.2 26.2
06:40 1017 30.03 847 25.01 1.9 35.5 68 -3.3 26.1
06:45 1017 30.03 847 25.01 2 35.5 69 -3.2 26.3
06:50 1018 30.06 847 25.01 2.1 35.7 67 -3.5 25.6
06:55 1018 30.06 847 25.01 2.5 36.5 61 -4.4 24.2
07:00 1018 30.06 847 25.01 3 37.4 60 -4.1 24.6
07:05 1018 30.06 847 25.01 3 37.4 60 -4 24.9
07:10 1018 30.06 847 25.01 2.9 37.2 59 -4.4 24.1
07:15 1018 30.06 847 25.01 3 37.3 58 -4.6 23.8
07:20 1018 30.06 847 25.01 3 37.4 58 -4.4 24.1
07:25 1018 30.06 847 25.01 2.9 37.3 59 -4.2 24.5
07:30 1018 30.06 847 25.01 2.9 37.2 60 -4.2 24.5
07:35 1018 30.06 847 25.01 2.7 36.9 61 -4 24.9
07:40 1018 30.06 847 25.01 2.6 36.6 62 -3.9 24.9
07:45 1018 30.06 847 25.01 2.4 36.4 63 -3.8 25.2
07:50 1018 30.06 847 25.01 2.3 36.1 65 -3.7 25.3
07:55 1018 30.06 847 25.01 2.2 35.9 65 -3.7 25.3
08:00 1018 30.06 847 25.01 2.1 35.9 66 -3.6 25.5
08:05 1018 30.06 847 25.01 2 35.7 66 -3.6 25.5
08:10 1018 30.06 847 25.01 2 35.6 66 -3.8 25.2
08:15 1018 30.06 847 25.01 2 35.7 66 -3.8 25.2
08:20 1018 30.06 847 25.01 2 35.6 66 -3.6 25.5
08:25 1018 30.06 848 25.04 2 35.6 66 -3.6 25.5
08:30 1018 30.06 848 25.04 2 35.5 67 -3.6 25.5
08:35 1018 30.06 848 25.04 1.9 35.5 67 -3.6 25.5
08:40 1018 30.06 848 25.04 1.9 35.4 67 -3.7 25.4
08:45 1019 30.09 848 25.04 1.9 35.5 67 -3.7 25.4
08:50 1019 30.09 848 25.04 1.9 35.4 67 -3.6 25.5
08:55 1019 30.09 848 25.04 1.8 35.3 67 -3.8 25.2
09:00 1019 30.09 848 25.04 1.8 35.3 66 -3.8 25.2
09:05 1019 30.09 848 25.04 1.8 35.2 66 -3.9 24.9
09:10 1019 30.09 848 25.04 1.8 35.2 66 -3.9 24.9
09:15 1019 30.09 848 25.04 1.8 35.3 65 -4.1 24.6
09:20 1019 30.09 848 25.04 1.9 35.3 66 -3.9 25
09:25 1019 30.09 848 25.04 1.8 35.3 66 -3.8 25.2
09:30 1019 30.09 848 25.04 1.8 35.2 67 -3.6 25.5
09:35 1019 30.09 849 25.07 1.5 34.8 72 -3.1 26.5
09:40 1019 30.09 849 25.07 1.4 34.5 73 -2.9 26.8
09:45 1019 30.09 849 25.07 1.4 34.4 72 -3.1 26.4
09:50 1020 30.12 849 25.07 1.3 34.3 78 -2.1 28.3
09:55 1020 30.12 849 25.07 0.8 33.4 84 -1.6 29.1
10:00 1020 30.12 849 25.07 0.5 33 84 -1.9 28.6
10:05 1020 30.12 849 25.07 0.5 33 83 -2 28.4
10:10 1020 30.12 849 25.07 0.6 33 82 -2.1 28.2
10:15 1020 30.12 849 25.07 0.7 33.2 81 -2.2 28
10:20 1020 30.12 849 25.07 0.8 33.4 81 -2.2 28.1
10:25 1020 30.12 849 25.07 1 33.7 79 -2.3 27.9
10:30 1020 30.12 850 25.1 1 33.7 79 -2.2 28
10:35 1020 30.12 850 25.1 0.8 33.5 81 -2.1 28.1
10:40 1020 30.12 850 25.1 0.6 33.1 82 -2.1 28.2
10:45 1021 30.15 850 25.1 0.4 32.8 82 -2.3 27.9
10:50 1021 30.15 850 25.1 0.6 33 76 -3.1 26.4
10:55 1021 30.15 850 25.1 1 33.9 75 -2.9 26.7
11:00 1021 30.15 850 25.1 1.1 34 73 -3.1 26.4
11:05 1021 30.15 850 25.1 1.2 34.2 71 -3.5 25.7
11:10 1021 30.15 850 25.1 1.5 34.7 69 -3.5 25.7
11:15 1021 30.15 850 25.1 1.7 35.1 68 -3.5 25.8
11:20 1021 30.15 850 25.1 1.9 35.5 66 -3.7 25.4
11:25 1021 30.15 850 25.1 2.1 35.7 66 -3.7 25.3
11:30 1021 30.15 850 25.1 2.2 36 64 -3.8 25.2
11:35 1021 30.15 850 25.1 2.3 36.2 64 -3.7 25.3
11:40 1021 30.15 850 25.1 2.4 36.3 64 -3.7 25.4
11:45 1021 30.15 850 25.1 2.5 36.5 63 -3.9 25
11:50 1021 30.15 851 25.13 2.5 36.5 64 -3.6 25.5
11:55 1021 30.15 851 25.13 2.5 36.4 62 -4 24.7
12:00 1021 30.15 851 25.13 2.7 36.8 62 -4 24.8
12:05 1021 30.15 851 25.13 3 37.4 61 -3.9 25
12:10 1021 30.15 851 25.13 3.1 37.6 60 -4 24.9
12:15 1022 30.18 851 25.13 3.2 37.7 58 -4.4 24
12:20 1022 30.18 851 25.13 3.2 37.8 56 -4.8 23.4
12:25 1022 30.18 851 25.13 3.4 38 55 -4.8 23.3
12:30 1022 30.18 851 25.13 3.4 38.1 55 -4.8 23.4
12:35 1022 30.18 851 25.13 3.2 37.7 57 -4.4 24.1
12:40 1022 30.18 851 25.13 3 37.4 58 -4.4 24.1
12:45 1022 30.18 851 25.13 3.1 37.5 57 -4.7 23.6
12:50 1022 30.18 851 25.13 3 37.5 56 -4.8 23.4
12:55 1022 30.18 851 25.13 3.1 37.6 55 -5.2 22.7
13:00 1021 30.15 851 25.13 3.2 37.8 54 -5.2 22.7
13:05 1021 30.15 851 25.13 3.5 38.2 53 -5.2 22.6
13:10 1021 30.15 851 25.13 3.3 37.9 55 -5 23
13:15 1021 30.15 851 25.13 3.3 38 53 -5.3 22.5
13:20 1021 30.15 851 25.13 3.5 38.3 52 -5.5 22.1
13:25 1021 30.15 851 25.13 3.7 38.6 52 -5.3 22.4
13:30 1021 30.15 851 25.13 3.8 38.8 50 -5.7 21.8
13:35 1021 30.15 851 25.13 3.7 38.7 52 -5.3 22.5
13:40 1021 30.15 851 25.13 3.6 38.4 52 -5.4 22.3
13:45 1021 30.15 851 25.13 3.7 38.7 52 -5.2 22.6
13:50 1021 30.15 851 25.13 3.8 38.8 54 -4.7 23.5
13:55 1021 30.15 851 25.13 3.2 37.8 57 -4.6 23.8
14:00 1021 30.15 851 25.13 2.8 37.1 57 -4.8 23.3
14:05 1021 30.15 851 25.13 3.1 37.7 53 -5.4 22.2
14:10 1021 30.15 851 25.13 3.1 37.6 55 -5.1 22.9
14:15 1021 30.15 851 25.13 3.2 37.7 54 -5.4 22.3
14:20 1021 30.15 850 25.1 3.2 37.7 53 -5.4 22.2
14:25 1021 30.15 850 25.1 4.7 40.5 47 -5.7 21.7
14:30 1021 30.15 850 25.1 5.2 41.4 46 -5.6 21.9
14:35 1021 30.15 850 25.1 4.9 40.9 47 -5.4 22.3
14:40 1021 30.15 850 25.1 5.3 41.6 46 -5.5 22.2
14:45 1021 30.15 850 25.1 5.4 41.7 45 -5.6 21.9
14:50 1021 30.15 850 25.1 5.7 42.3 43 -5.8 21.5
14:55 1021 30.15 850 25.1 5.5 41.8 44 -5.7 21.7
15:00 1021 30.15 850 25.1 5.6 42.1 44 -5.8 21.5
15:05 1021 30.15 850 25.1 5.5 42 45 -5.6 21.9
15:10 1021 30.15 850 25.1 5.3 41.6 45 -5.7 21.7
15:15 1021 30.15 850 25.1 5 41 46 -5.6 21.8
15:20 1021 30.15 850 25.1 4.2 39.6 47 -6 21.2
15:25 1021 30.15 850 25.1 4.8 40.7 44 -6.4 20.5
15:30 1021 30.15 850 25.1 5.2 41.4 41 -6.8 19.7
15:35 1021 30.15 850 25.1 5.4 41.8 43 -6.2 20.8
15:40 1021 30.15 850 25.1 5 41 45 -5.9 21.3
15:45 1021 30.15 850 25.1 4.9 40.8 45 -6.1 21
15:50 1021 30.15 850 25.1 4.8 40.6 45 -6 21.2
15:55 1021 30.15 850 25.1 4.9 40.8 42 -6.9 19.6
16:00 1021 30.15 850 25.1 5 40.9 41 -7.1 19.3
16:05 1021 30.15 850 25.1 5 41.1 42 -6.7 19.9
16:10 1021 30.15 850 25.1 5.1 41.3 43 -6.5 20.2
16:15 1021 30.15 850 25.1 5 40.9 44 -6.3 20.7
16:20 1021 30.15 850 25.1 5.2 41.4 41 -6.8 19.7
16:25 1021 30.15 850 25.1 5.5 41.9 43 -6.2 20.8
16:30 1021 30.15 850 25.1 6.1 43 40 -6.6 20.2
16:35 1021 30.15 850 25.1 6 42.9 41 -6.3 20.7
16:40 1021 30.15 850 25.1 6 42.8 40 -6.6 20
16:45 1021 30.15 850 25.1 6.2 43.1 41 -6.2 20.9
16:50 1021 30.15 850 25.1 6.2 43.1 40 -6.3 20.7
16:55 1021 30.15 850 25.1 5.8 42.4 42 -6.2 20.8
17:00 1021 30.15 850 25.1 5.7 42.2 43 -6 21.3
17:05 1021 30.15 850 25.1 5.6 42.1 41 -6.5 20.3
17:10 1021 30.15 850 25.1 5.6 42.1 41 -6.7 19.9
17:15 1021 30.15 850 25.1 5.5 41.9 42 -6.3 20.6
17:20 1021 30.15 850 25.1 5.5 41.9 41 -6.7 19.9
17:25 1021 30.15 850 25.1 5.5 41.8 42 -6.6 20.2
17:30 1021 30.15 850 25.1 5.5 41.9 41 -6.7 19.9
17:35 1021 30.15 850 25.1 5.2 41.3 43 -6.5 20.2
17:40 1021 30.15 850 25.1 5.1 41.1 42 -6.7 19.9
17:45 1021 30.15 850 25.1 5 41 43 -6.6 20.1
17:50 1021 30.15 851 25.13 5 41.1 43 -6.6 20.2
17:55 1021 30.15 851 25.13 4.9 40.7 43 -6.8 19.8
18:00 1021 30.15 851 25.13 4.7 40.5 44 -6.6 20.1
18:05 1021 30.15 851 25.13 4.6 40.4 44 -6.6 20.2
18:10 1022 30.18 851 25.13 4.5 40.1 44 -6.7 20
18:15 1022 30.18 851 25.13 4.2 39.6 45 -6.7 20
18:20 1021 30.15 851 25.13 4 39.3 46 -6.5 20.3
18:25 1021 30.15 851 25.13 3.7 38.6 47 -6.5 20.2
18:30 1022 30.18 851 25.13 3.5 38.2 47 -6.9 19.6
18:35 1022 30.18 851 25.13 3.3 37.9 47 -7 19.4
18:40 1022 30.18 851 25.13 3.2 37.8 47 -7 19.3
18:45 1022 30.18 851 25.13 3.1 37.6 47 -7.1 19.1
18:50 1022 30.18 851 25.13 3.1 37.6 48 -7 19.4
18:55 1022 30.18 851 25.13 3 37.4 47 -7.2 19
19:00 1022 30.18 851 25.13 2.9 37.1 48 -7.1 19.3
19:05 1022 30.18 851 25.13 2.8 37 48 -7.1 19.3
19:10 1022 30.18 851 25.13 2.7 36.9 49 -7 19.4
19:15 1022 30.18 851 25.13 2.7 36.9 49 -7.1 19.3
19:20 1022 30.18 851 25.13 2.7 36.8 48 -7.2 19
19:25 1022 30.18 851 25.13 2.7 36.8 49 -7.1 19.3
19:30 1022 30.18 852 25.16 2.5 36.4 50 -6.9 19.6
19:35 1022 30.18 852 25.16 2 35.6 52 -6.9 19.5
19:40 1022 30.18 852 25.16 1.8 35.2 53 -6.9 19.6
19:45 1022 30.18 852 25.16 1.7 35 53 -6.9 19.5
19:50 1023 30.21 852 25.16 1.6 34.9 53 -7 19.4
19:55 1023 30.21 852 25.16 1.5 34.8 52 -7.3 18.9
20:00 1023 30.21 852 25.16 1.5 34.7 51 -7.6 18.3
20:05 1023 30.21 852 25.16 1.5 34.6 51 -7.5 18.4
20:10 1023 30.21 852 25.16 1.4 34.5 51 -7.6 18.3
20:15 1023 30.21 852 25.16 1.3 34.3 53 -7.4 18.7
20:20 1023 30.21 852 25.16 1.1 33.9 52 -7.6 18.3
20:25 1023 30.21 852 25.16 0.9 33.7 52 -7.8 17.9
20:30 1023 30.21 852 25.16 0.8 33.5 53 -7.6 18.3
20:35 1023 30.21 852 25.16 0.6 33.2 53 -7.8 18
20:40 1023 30.21 852 25.16 0.6 33 55 -7.5 18.4
20:45 1023 30.21 853 25.19 0.5 32.9 55 -7.5 18.5
20:50 1024 30.24 853 25.19 0.4 32.8 55 -7.5 18.5
20:55 1024 30.24 853 25.19 0.4 32.8 56 -7.4 18.7
21:00 1024 30.24 853 25.19 0.4 32.8 56 -7.4 18.7
21:05 1024 30.24 853 25.19 0.4 32.8 56 -7.4 18.7
21:10 1024 30.24 853 25.19 0.4 32.8 56 -7.5 18.6
21:15 1024 30.24 853 25.19 0.3 32.5 56 -7.5 18.5
21:20 1024 30.24 853 25.19 -0.1 31.9 57 -7.6 18.4
21:25 1024 30.24 853 25.19 -0.2 31.7 57 -7.7 18.2
21:30 1024 30.24 853 25.19 0 32 56 -7.7 18.2
21:35 1024 30.24 853 25.19 0.1 32.2 56 -7.7 18.1
21:40 1024 30.24 853 25.19 0.2 32.3 56 -7.7 18.2
21:45 1024 30.24 853 25.19 0.2 32.4 56 -7.6 18.4
21:50 1024 30.24 853 25.19 0.1 32.2 56 -7.7 18.2
21:55 1024 30.24 853 25.19 0 32.1 57 -7.5 18.4
22:00 1024 30.24 853 25.19 -0.1 31.8 57 -7.5 18.4
22:05 1024 30.24 853 25.19 -0.2 31.7 58 -7.5 18.4
22:10 1024 30.24 853 25.19 -0.2 31.7 58 -7.5 18.5
22:15 1024 30.24 853 25.19 -0.2 31.6 59 -7.4 18.7
22:20 1024 30.24 853 25.19 -0.4 31.3 58 -7.6 18.4
22:25 1024 30.24 853 25.19 -0.6 31 59 -7.6 18.3
22:30 1024 30.24 854 25.22 -0.5 31 59 -7.5 18.5
22:35 1025 30.27 854 25.22 -0.7 30.8 58 -7.9 17.9
22:40 1025 30.27 854 25.22 -1.2 29.8 61 -7.9 17.7
22:45 1025 30.27 854 25.22 -1.8 28.8 61 -8.3 17.1
22:50 1025 30.27 854 25.22 -2 28.5 62 -8.3 17
22:55 1025 30.27 854 25.22 -1.6 29.1 60 -8.4 16.9
23:00 1025 30.27 854 25.22 -1.2 29.8 59 -8.2 17.3
23:05 1025 30.27 854 25.22 -1 30.3 59 -8.1 17.5
23:10 1025 30.27 854 25.22 -0.8 30.5 59 -7.8 17.9
23:15 1025 30.27 854 25.22 -0.8 30.6 59 -7.7 18.2
23:20 1025 30.27 854 25.22 -0.5 31.1 59 -7.5 18.6
23:25 1025 30.27 854 25.22 -0.5 31 60 -7.4 18.7
23:30 1025 30.27 854 25.22 -0.6 30.9 60 -7.4 18.7
23:35 1025 30.27 854 25.22 -0.7 30.8 59 -7.8 18
23:40 1025 30.27 854 25.22 -1.2 29.9 60 -7.9 17.7
23:45 1025 30.27 854 25.22 -2 28.4 62 -8.4 16.8
23:50 1025 30.27 854 25.22 -2.2 28.1 63 -8.3 17.1
23:55 1025 30.27 854 25.22 -1.7 28.9 63 -7.9 17.7
24:00 1025 30.27 854 25.22 -1.7 28.9 63 -7.9 17.8